Time;durP1;ratioP1;P1;durP2;ratioP2;P2;SDS_P1;SDS_P2;PMS_P1;PMS_P2;Temp;Humidity;BMP_temperature;BMP_pressure;BME280_temperature;BME280_humidity;BME280_pressure;Samples;Min_cycle;Max_cycle;Signal;HPM_P1;HPM_P2
2022/08/26 00:02:03;;;;;;;64.25;48.42;;;19.50;99.90;;;;;;5031310;28;20038;-27
2022/08/26 00:04:30;;;;;;;58.03;41.90;;;19.40;99.90;;;;;;5049419;28;20046;-27
2022/08/26 00:06:56;;;;;;;55.70;41.97;;;19.70;99.90;;;;;;5053098;28;20049;-27
2022/08/26 00:09:23;;;;;;;65.65;40.50;;;19.70;99.90;;;;;;5035268;28;20165;-27
2022/08/26 00:11:49;;;;;;;47.63;36.25;;;19.80;99.90;;;;;;5036292;28;20041;-27
2022/08/26 00:14:15;;;;;;;51.08;37.65;;;20.00;99.90;;;;;;5035719;28;20107;-28
2022/08/26 00:16:42;;;;;;;48.35;37.00;;;20.10;99.90;;;;;;5037315;28;20085;-28
2022/08/26 00:19:09;;;;;;;59.08;37.42;;;19.90;99.90;;;;;;5036227;28;20193;-27
2022/08/26 00:21:35;;;;;;;58.45;37.33;;;19.90;99.90;;;;;;5037245;28;20136;-28
2022/08/26 00:24:01;;;;;;;52.95;35.25;;;20.00;99.90;;;;;;5036130;28;20049;-27
2022/08/26 00:26:27;;;;;;;49.03;36.03;;;20.10;99.90;;;;;;5036008;28;20049;-27
2022/08/26 00:28:53;;;;;;;50.20;33.50;;;20.00;99.90;;;;;;5035920;28;20054;-27
2022/08/26 00:31:19;;;;;;;47.00;33.17;;;20.10;99.90;;;;;;5036881;28;20063;-27
2022/08/26 00:33:44;;;;;;;48.75;34.60;;;20.00;99.90;;;;;;5036952;28;20049;-27
2022/08/26 00:36:10;;;;;;;45.05;32.88;;;20.00;99.90;;;;;;5036304;28;20049;-27
2022/08/26 00:38:37;;;;;;;48.58;33.20;;;19.90;99.90;;;;;;5034785;28;20048;-27
2022/08/26 00:41:03;;;;;;;50.05;33.28;;;20.10;99.90;;;;;;5035836;28;20042;-27
2022/08/26 00:43:32;;;;;;;55.80;32.55;;;19.80;99.90;;;;;;5035644;28;20042;-26
2022/08/26 00:46:20;;;;;;;46.13;29.92;;;20.00;99.90;;;;;;5035416;28;20518;-27
2022/08/26 00:48:50;;;;;;;45.38;30.77;;;20.00;99.90;;;;;;5035030;28;20048;-27
2022/08/26 00:51:23;;;;;;;54.58;29.10;;;20.00;99.90;;;;;;5035633;28;20046;-27
2022/08/26 00:53:53;;;;;;;46.97;28.05;;;20.00;99.90;;;;;;5034645;28;20049;-27
2022/08/26 00:56:28;;;;;;;39.88;29.20;;;20.00;99.90;;;;;;5034434;28;20376;-27
2022/08/26 00:58:57;;;;;;;42.03;28.98;;;20.10;99.90;;;;;;5035558;28;20091;-27
2022/08/26 01:01:25;;;;;;;45.05;28.40;;;20.10;93.40;;;;;;5035371;28;20505;-28
2022/08/26 01:03:52;;;;;;;42.90;29.10;;;20.10;58.10;;;;;;5034663;28;20049;-27
2022/08/26 01:06:18;;;;;;;43.33;27.00;;;20.10;33.60;;;;;;5036958;28;20567;-27
2022/08/26 01:08:44;;;;;;;42.67;27.90;;;20.10;1.00;;;;;;5035308;28;20389;-27
2022/08/26 01:11:11;;;;;;;42.97;28.60;;;20.00;1.00;;;;;;5035574;28;20116;-27
2022/08/26 01:13:37;;;;;;;36.95;26.90;;;19.90;1.00;;;;;;5033872;28;20057;-27
2022/08/26 01:16:07;;;;;;;41.50;27.33;;;19.80;1.00;;;;;;5035071;28;20495;-27
2022/08/26 01:18:33;;;;;;;52.70;28.05;;;19.80;1.00;;;;;;5035690;28;20049;-28
2022/08/26 01:21:06;;;;;;;49.60;28.75;;;19.80;42.30;;;;;;5035011;28;20144;-26
2022/08/26 01:23:37;;;;;;;;;;;19.80;51.60;;;;;;5035481;28;20057;-27
2022/08/26 01:26:10;;;;;;;40.28;25.83;;;19.70;99.90;;;;;;5034989;28;19921;-27
2022/08/26 01:28:37;;;;;;;48.30;27.00;;;19.90;99.90;;;;;;5036020;28;20049;-27
2022/08/26 01:31:06;;;;;;;42.47;27.40;;;19.90;99.90;;;;;;5034918;28;20053;-27
2022/08/26 01:33:45;;;;;;;43.58;26.83;;;19.80;99.90;;;;;;5035831;28;20046;-26
2022/08/26 01:36:11;;;;;;;48.13;26.92;;;19.90;99.90;;;;;;5033361;28;20051;-27
2022/08/26 01:38:38;;;;;;;45.92;28.95;;;19.90;99.90;;;;;;5034762;28;20045;-27
2022/08/26 01:41:06;;;;;;;49.30;26.88;;;20.00;99.90;;;;;;5032849;28;20064;-27
2022/08/26 01:43:33;;;;;;;39.53;25.88;;;19.90;99.90;;;;;;5035580;28;20110;-27
2022/08/26 01:46:01;;;;;;;51.70;27.52;;;20.00;99.90;;;;;;5033691;28;20049;-27
2022/08/26 01:48:30;;;;;;;43.85;27.38;;;19.80;99.90;;;;;;5034760;28;20507;-27
2022/08/26 01:50:58;;;;;;;51.30;27.10;;;19.90;99.90;;;;;;5033045;28;20395;-27
2022/08/26 01:53:24;;;;;;;45.30;27.33;;;20.10;99.90;;;;;;5024861;28;20120;-27
2022/08/26 01:55:54;;;;;;;46.90;27.67;;;19.90;96.50;;;;;;5034592;28;20068;-28
2022/08/26 01:58:25;;;;;;;42.67;26.50;;;19.90;44.40;;;;;;5034197;28;20135;-27
2022/08/26 02:00:51;;;;;;;38.85;25.15;;;20.10;1.00;;;;;;5035570;28;20042;-27
2022/08/26 02:03:20;;;;;;;42.10;25.58;;;19.90;1.00;;;;;;5031698;28;20045;-28
2022/08/26 02:05:59;;;;;;;42.67;26.52;;;19.90;1.00;;;;;;5031329;28;20053;-28
2022/08/26 02:08:31;;;;;;;41.60;27.50;;;19.90;1.00;;;;;;5015502;28;20093;-27
2022/08/26 02:10:57;;;;;;;38.55;25.85;;;20.10;1.00;;;;;;5015718;28;20396;-27
2022/08/26 02:13:28;;;;;;;41.58;26.20;;;19.90;1.00;;;;;;5027932;28;20128;-27
2022/08/26 02:15:56;;;;;;;48.78;26.83;;;20.00;1.00;;;;;;5032994;28;20183;-27
2022/08/26 02:18:22;;;;;;;41.50;26.33;;;20.00;1.00;;;;;;5033030;28;20057;-27
2022/08/26 02:20:48;;;;;;;41.00;25.15;;;19.90;1.00;;;;;;5035593;28;20128;-26
2022/08/26 02:23:14;;;;;;;47.65;27.02;;;19.80;1.00;;;;;;5034240;28;20120;-27
2022/08/26 02:26:01;;;;;;;42.55;24.88;;;20.00;1.00;;;;;;5034926;28;20049;-28
2022/08/26 02:28:31;;;;;;;46.13;24.45;;;19.70;1.00;;;;;;5033863;28;20509;-27
2022/08/26 02:30:57;;;;;;;42.10;24.90;;;19.80;1.00;;;;;;5032295;28;20059;-27
2022/08/26 02:33:22;;;;;;;41.92;23.48;;;19.90;1.00;;;;;;5034258;28;20045;-27
2022/08/26 02:35:48;;;;;;;43.50;24.55;;;20.00;1.00;;;;;;5034678;28;20128;-27
2022/08/26 02:38:14;;;;;;;36.20;22.67;;;19.80;1.00;;;;;;5033569;28;20593;-26
2022/08/26 02:40:42;;;;;;;30.40;20.92;;;20.00;1.00;;;;;;5033676;28;20399;-27
2022/08/26 02:43:08;;;;;;;40.53;22.52;;;20.00;1.00;;;;;;5033593;28;20042;-27
2022/08/26 02:45:34;;;;;;;38.83;20.08;;;20.00;1.00;;;;;;5048657;28;20053;-26
2022/08/26 02:48:09;;;;;;;35.78;20.10;;;20.00;1.00;;;;;;5032432;28;20119;-26
2022/08/26 02:50:35;;;;;;;35.92;20.23;;;20.00;1.00;;;;;;5032739;28;20049;-26
2022/08/26 02:53:01;;;;;;;34.65;21.23;;;19.70;1.00;;;;;;5048657;28;20403;-27
2022/08/26 02:55:27;;;;;;;32.50;20.33;;;19.80;1.00;;;;;;5032310;28;20072;-27
2022/08/26 02:57:53;;;;;;;36.72;19.73;;;19.70;1.00;;;;;;5034188;28;20076;-26
2022/08/26 03:00:19;;;;;;;33.15;17.95;;;20.00;99.90;;;;;;5033231;28;20046;-28
2022/08/26 03:02:45;;;;;;;32.55;21.15;;;19.70;1.00;;;;;;5032156;28;20049;-27
2022/08/26 03:05:11;;;;;;;37.03;18.77;;;19.90;1.00;;;;;;5034240;28;20049;-27
2022/08/26 03:07:37;;;;;;;36.55;18.08;;;19.70;1.00;;;;;;5031224;28;20403;-28
2022/08/26 03:10:04;;;;;;;30.88;17.80;;;19.70;99.90;;;;;;5033972;28;20128;-27
2022/08/26 03:12:30;;;;;;;34.47;18.85;;;19.90;99.90;;;;;;5032945;28;20041;-27
2022/08/26 03:14:56;;;;;;;38.83;19.15;;;19.70;99.90;;;;;;5033045;28;20045;-27
2022/08/26 03:17:22;;;;;;;34.58;19.58;;;19.70;99.90;;;;;;5031920;28;20055;-27
2022/08/26 03:19:48;;;;;;;30.27;19.48;;;19.80;99.90;;;;;;5032056;28;20038;-28
2022/08/26 03:22:14;;;;;;;34.67;19.00;;;19.60;99.90;;;;;;5034749;28;20087;-27
2022/08/26 03:24:39;;;;;;;29.65;18.67;;;19.70;99.90;;;;;;5033883;28;20045;-27
2022/08/26 03:27:05;;;;;;;35.67;17.67;;;19.70;99.90;;;;;;5034703;28;20049;-27
2022/08/26 03:32:16;;;;;;;32.83;17.83;;;19.90;99.90;;;;;;5025097;28;20478;-28
2022/08/26 03:34:42;;;;;;;34.90;17.02;;;19.90;99.90;;;;;;5033841;28;20041;-26
2022/08/26 03:37:07;;;;;;;31.15;16.13;;;19.90;99.90;;;;;;5033742;28;20411;-27
2022/08/26 03:39:34;;;;;;;26.48;15.45;;;19.90;99.90;;;;;;5033229;28;20475;-26
2022/08/26 03:41:59;;;;;;;25.52;15.13;;;19.80;99.90;;;;;;5034160;28;20049;-27
2022/08/26 03:44:25;;;;;;;29.58;13.93;;;19.90;99.90;;;;;;5031783;28;20045;-27
2022/08/26 03:46:52;;;;;;;25.63;15.15;;;19.60;99.90;;;;;;5033120;28;20048;-27
2022/08/26 03:49:18;;;;;;;29.60;15.13;;;19.80;99.90;;;;;;5032596;28;20045;-27
2022/08/26 03:51:44;;;;;;;26.50;14.30;;;19.60;99.90;;;;;;5031475;28;20380;-27
2022/08/26 03:54:09;;;;;;;25.85;14.40;;;19.60;99.90;;;;;;5030965;28;20053;-26
2022/08/26 03:56:36;;;;;;;23.95;14.02;;;19.70;99.90;;;;;;5031618;28;20057;-27
2022/08/26 03:59:02;;;;;;;21.10;12.82;;;19.60;99.90;;;;;;5032349;28;20049;-27
2022/08/26 04:01:29;;;;;;;28.52;15.20;;;19.70;99.90;;;;;;5033504;28;20048;-26
2022/08/26 04:03:58;;;;;;;28.90;12.50;;;19.60;99.90;;;;;;5032513;28;20057;-27
2022/08/26 04:06:41;;;;;;;25.58;14.10;;;19.50;99.90;;;;;;5016580;28;20128;-26
2022/08/26 04:09:09;;;;;;;;;;;19.70;1.00;;;;;;5031562;28;20505;-27
2022/08/26 04:11:36;;;;;;;26.95;14.13;;;19.70;1.00;;;;;;5032307;28;19924;-27
2022/08/26 04:14:05;;;;;;;24.77;13.68;;;19.50;99.90;;;;;;5046928;28;20049;-28
2022/08/26 04:16:31;;;;;;;30.23;13.90;;;19.50;99.90;;;;;;5033394;28;20045;-27
2022/08/26 04:18:57;;;;;;;25.73;13.20;;;19.70;99.90;;;;;;5032494;28;20124;-27
2022/08/26 04:21:24;;;;;;;26.48;11.65;;;19.50;99.90;;;;;;5032342;28;20099;-27
2022/08/26 04:23:51;;;;;;;26.50;12.32;;;19.50;99.90;;;;;;5047667;28;20056;-27
2022/08/26 04:26:19;;;;;;;24.88;11.43;;;19.50;99.90;;;;;;5033266;28;20053;-27
2022/08/26 04:28:46;;;;;;;20.20;10.65;;;19.60;99.90;;;;;;5032317;28;20092;-26
2022/08/26 04:31:14;;;;;;;25.50;10.90;;;19.60;99.90;;;;;;5031781;28;20081;-27
2022/08/26 04:33:44;;;;;;;26.27;10.35;;;19.60;1.00;;;;;;5031815;28;20447;-27
2022/08/26 04:36:10;;;;;;;33.55;12.95;;;19.40;1.00;;;;;;5032094;28;20053;-27
2022/08/26 04:38:36;;;;;;;30.45;11.25;;;19.70;1.00;;;;;;5031331;28;20037;-27
2022/08/26 04:41:04;;;;;;;20.92;9.57;;;19.60;1.00;;;;;;5032356;28;20566;-27
2022/08/26 04:43:30;;;;;;;24.13;10.65;;;19.50;1.00;;;;;;5031802;28;20060;-26
2022/08/26 04:46:01;;;;;;;26.92;10.32;;;19.60;1.00;;;;;;5031947;28;20049;-26
2022/08/26 04:48:29;;;;;;;17.88;9.35;;;19.30;1.00;;;;;;5031245;28;20120;-26
2022/08/26 04:50:55;;;;;;;22.40;10.20;;;19.30;1.00;;;;;;5031752;28;20049;-26
2022/08/26 04:53:21;;;;;;;27.58;10.88;;;19.40;99.90;;;;;;5033419;28;20172;-27
2022/08/26 04:55:47;;;;;;;21.23;10.43;;;19.50;99.90;;;;;;5035496;28;20052;-26
2022/08/26 04:58:17;;;;;;;20.23;10.65;;;19.70;99.90;;;;;;5036876;28;20041;-26
2022/08/26 05:00:45;;;;;;;28.70;11.27;;;19.70;99.90;;;;;;5036838;28;20053;-27
2022/08/26 05:03:11;;;;;;;30.13;10.25;;;19.50;99.90;;;;;;5035542;28;20037;-26
2022/08/26 05:05:41;;;;;;;21.33;8.95;;;19.60;99.90;;;;;;5035870;28;20405;-26
2022/08/26 05:08:11;;;;;;;23.50;9.98;;;19.50;99.90;;;;;;5035829;28;20056;-27
2022/08/26 05:10:44;;;;;;;28.30;10.75;;;19.80;99.90;;;;;;5033707;28;20236;-27
2022/08/26 05:13:11;;;;;;;29.17;8.75;;;19.50;99.90;;;;;;5036346;28;20045;-27
2022/08/26 05:15:37;;;;;;;23.50;9.52;;;19.90;99.90;;;;;;5035937;28;20045;-27
2022/08/26 05:18:05;;;;;;;29.38;10.73;;;19.80;99.90;;;;;;5034248;28;20048;-26
2022/08/26 05:20:32;;;;;;;21.73;8.02;;;19.70;99.90;;;;;;5035887;28;20513;-27
2022/08/26 05:22:59;;;;;;;25.10;7.90;;;19.60;99.90;;;;;;5035478;28;20057;-27
2022/08/26 05:25:26;;;;;;;21.52;8.23;;;19.60;99.90;;;;;;5035872;28;20053;-27
2022/08/26 05:27:52;;;;;;;30.48;9.60;;;19.90;99.90;;;;;;5034884;28;20061;-27
2022/08/26 05:30:18;;;;;;;18.05;8.32;;;20.00;99.90;;;;;;5035749;28;20049;-27
2022/08/26 05:32:46;;;;;;;17.90;9.10;;;19.80;99.90;;;;;;5034923;28;20041;-26
2022/08/26 05:35:12;;;;;;;23.52;9.80;;;20.00;99.90;;;;;;5035911;28;20098;-26
2022/08/26 05:37:38;;;;;;;20.02;8.63;;;20.10;99.90;;;;;;5034859;28;20053;-26
2022/08/26 05:40:05;;;;;;;27.20;9.48;;;19.90;99.90;;;;;;5034431;28;20042;-27
2022/08/26 05:42:30;;;;;;;21.85;8.70;;;20.10;99.90;;;;;;5032794;28;20049;-27
2022/08/26 05:44:56;;;;;;;17.92;8.38;;;20.20;99.90;;;;;;5033539;28;20041;-27
2022/08/26 05:47:24;;;;;;;26.98;8.90;;;20.10;6.70;;;;;;5035031;28;20498;-26
2022/08/26 05:49:50;;;;;;;18.23;7.72;;;20.20;1.00;;;;;;5033730;28;20056;-27
2022/08/26 05:52:15;;;;;;;20.05;6.88;;;20.40;1.00;;;;;;5036038;28;20418;-27
2022/08/26 05:54:41;;;;;;;16.27;6.40;;;20.20;1.00;;;;;;5033722;28;20041;-26
2022/08/26 05:57:07;;;;;;;17.45;6.20;;;20.30;1.00;;;;;;5035561;28;20520;-27
2022/08/26 05:59:32;;;;;;;18.98;6.50;;;20.30;1.00;;;;;;5034583;28;20142;-27
2022/08/26 06:01:58;;;;;;;21.33;6.63;;;20.20;1.00;;;;;;5034198;28;20049;-29
2022/08/26 06:04:24;;;;;;;21.30;5.47;;;20.00;1.00;;;;;;5049401;28;20045;-29
2022/08/26 06:06:50;;;;;;;16.80;5.13;;;20.00;1.00;;;;;;5034719;28;20053;-27
2022/08/26 06:09:16;;;;;;;15.52;5.18;;;20.20;1.00;;;;;;5034210;28;20454;-27
2022/08/26 06:11:42;;;;;;;15.32;4.30;;;20.10;1.00;;;;;;5034137;28;20045;-27
2022/08/26 06:14:08;;;;;;;18.20;5.28;;;20.00;1.00;;;;;;5033140;28;20111;-26
2022/08/26 06:16:37;;;;;;;13.75;4.55;;;20.00;1.00;;;;;;5034069;28;20442;-27
2022/08/26 06:19:05;;;;;;;17.45;4.30;;;20.10;1.00;;;;;;5034559;28;20442;-27
2022/08/26 06:21:37;;;;;;;13.50;4.30;;;20.30;1.00;;;;;;5034133;28;20053;-27
2022/08/26 06:26:56;;;;;;;14.10;4.10;;;20.10;1.00;;;;;;5033935;28;20053;-27
2022/08/26 06:29:24;;;;;;;22.00;5.47;;;20.20;1.00;;;;;;5034194;28;20073;-28
2022/08/26 06:31:51;;;;;;;14.43;4.65;;;20.20;1.00;;;;;;5033809;28;20058;-27
2022/08/26 06:34:17;;;;;;;15.82;5.25;;;20.20;1.00;;;;;;5034804;28;20053;-27
2022/08/26 06:36:46;;;;;;;17.00;5.40;;;20.20;1.00;;;;;;5032587;28;20387;-28
2022/08/26 06:39:15;;;;;;;14.65;4.15;;;20.20;1.00;;;;;;5031681;28;20052;-27
2022/08/26 06:41:45;;;;;;;10.55;3.90;;;20.20;1.00;;;;;;5046582;28;20048;-28
2022/08/26 06:44:12;;;;;;;17.73;6.28;;;20.00;1.00;;;;;;5044619;28;20731;-27
2022/08/26 06:46:39;;;;;;;15.57;4.15;;;20.10;1.00;;;;;;5040185;28;20044;-28
2022/08/26 06:49:04;;;;;;;14.23;4.05;;;20.10;1.00;;;;;;5022376;28;20045;-27
2022/08/26 06:51:33;;;;;;;14.65;4.10;;;19.90;1.00;;;;;;5034486;28;20053;-27
2022/08/26 06:54:00;;;;;;;17.58;4.05;;;20.00;1.00;;;;;;5034319;28;20045;-26
2022/08/26 06:56:35;;;;;;;16.73;4.47;;;19.90;1.00;;;;;;5033726;28;20053;-27
2022/08/26 06:59:02;;;;;;;11.95;3.00;;;20.00;1.00;;;;;;5034634;28;20122;-27
2022/08/26 07:01:30;;;;;;;16.10;3.38;;;20.00;1.00;;;;;;5033326;28;20041;-27
2022/08/26 07:03:58;;;;;;;11.88;3.40;;;20.00;43.60;;;;;;5033066;28;20096;-27
2022/08/26 07:06:27;;;;;;;10.57;4.22;;;19.90;54.70;;;;;;5033241;28;20053;-27
2022/08/26 07:09:00;;;;;;;14.57;3.63;;;19.90;52.60;;;;;;5034696;28;20049;-27
2022/08/26 07:11:26;;;;;;;13.05;3.17;;;20.00;1.00;;;;;;5034206;28;20053;-27
2022/08/26 07:13:52;;;;;;;9.68;2.70;;;20.10;1.00;;;;;;5032447;28;20119;-26
2022/08/26 07:16:18;;;;;;;14.80;2.40;;;20.10;1.00;;;;;;5033988;28;20044;-26
2022/08/26 07:18:45;;;;;;;13.23;2.90;;;20.10;1.00;;;;;;5014303;28;20559;-27
2022/08/26 07:21:13;;;;;;;16.90;3.83;;;20.10;1.00;;;;;;5012783;28;20138;-27
2022/08/26 07:23:39;;;;;;;18.38;2.92;;;19.80;1.00;;;;;;5013279;28;20053;-27
2022/08/26 07:26:07;;;;;;;17.40;2.85;;;19.60;1.00;;;;;;5014139;28;20053;-27
2022/08/26 07:28:33;;;;;;;13.93;2.90;;;19.60;99.90;;;;;;5029708;28;20049;-28
2022/08/26 07:31:09;;;;;;;15.32;2.55;;;19.80;99.90;;;;;;5030973;28;20103;-27
2022/08/26 07:33:37;;;;;;;16.08;3.75;;;19.80;99.90;;;;;;5033676;28;20046;-27
2022/08/26 07:36:05;;;;;;;13.07;2.53;;;19.80;99.90;;;;;;5033798;28;20119;-27
2022/08/26 07:38:33;;;;;;;10.05;2.42;;;19.80;99.90;;;;;;5016858;28;20053;-27
2022/08/26 07:40:59;;;;;;;16.77;3.65;;;20.00;99.90;;;;;;5033577;28;20056;-26
2022/08/26 07:43:24;;;;;;;22.58;3.22;;;19.90;99.90;;;;;;5032820;28;20042;-26
2022/08/26 07:45:50;;;;;;;19.70;2.55;;;19.90;99.90;;;;;;5048666;28;20052;-26
2022/08/26 07:48:18;;;;;;;16.70;2.92;;;20.10;99.90;;;;;;4996708;28;20053;-26
2022/08/26 07:50:44;;;;;;;21.92;2.75;;;19.80;99.90;;;;;;5013879;28;20498;-27
2022/08/26 07:53:11;;;;;;;10.95;2.10;;;19.80;99.90;;;;;;5013821;28;20235;-26
2022/08/26 07:55:37;;;;;;;14.48;2.47;;;19.90;99.90;;;;;;5012716;28;20107;-27
2022/08/26 07:58:04;;;;;;;12.38;2.30;;;19.90;99.90;;;;;;5013088;28;20449;-26
2022/08/26 08:00:31;;;;;;;10.65;2.20;;;19.60;99.90;;;;;;5033508;28;20057;-27
2022/08/26 08:02:58;;;;;;;12.38;2.75;;;19.60;99.90;;;;;;5032322;28;20072;-27
2022/08/26 08:05:24;;;;;;;14.80;2.20;;;19.80;99.90;;;;;;5033533;28;20053;-27
2022/08/26 08:07:51;;;;;;;12.73;2.40;;;19.90;99.90;;;;;;5031857;28;20065;-27
2022/08/26 08:10:23;;;;;;;13.70;2.05;;;20.00;99.90;;;;;;5032439;28;20046;-26
2022/08/26 08:12:50;;;;;;;12.98;2.20;;;19.90;99.90;;;;;;5031232;28;20064;-27
2022/08/26 08:15:18;;;;;;;12.77;2.08;;;20.10;99.90;;;;;;5015727;28;20079;-26
2022/08/26 08:17:44;;;;;;;13.00;2.25;;;20.30;60.70;;;;;;5032115;28;20046;-28
2022/08/26 08:20:11;;;;;;;12.27;1.90;;;20.00;1.00;;;;;;5032313;28;20156;-27
2022/08/26 08:22:37;;;;;;;13.20;2.10;;;19.90;1.00;;;;;;5033254;28;20061;-26
2022/08/26 08:25:04;;;;;;;12.50;1.85;;;19.80;1.00;;;;;;5033988;28;20046;-27
2022/08/26 08:27:34;;;;;;;10.75;1.88;;;19.80;1.00;;;;;;5037183;28;20138;-28
2022/08/26 08:30:00;;;;;;;13.27;2.08;;;19.70;1.00;;;;;;5038545;28;20057;-27
2022/08/26 08:32:26;;;;;;;8.75;1.52;;;19.80;1.00;;;;;;5036879;28;20476;-27
2022/08/26 08:34:54;;;;;;;13.10;2.53;;;19.80;1.00;;;;;;5036937;28;20128;-27
2022/08/26 08:37:21;;;;;;;9.02;2.28;;;19.70;1.00;;;;;;5037559;28;20432;-27
2022/08/26 08:39:46;;;;;;;15.68;2.40;;;19.60;1.00;;;;;;5034875;28;20045;-26
2022/08/26 08:42:12;;;;;;;12.93;2.67;;;19.60;1.00;;;;;;5036223;28;20075;-26
2022/08/26 08:44:44;;;;;;;12.55;2.13;;;19.70;1.00;;;;;;5036854;28;20081;-27
2022/08/26 08:47:29;;;;;;;12.20;2.13;;;19.80;16.10;;;;;;5036187;28;20136;-27
2022/08/26 08:50:01;;;;;;;8.02;2.78;;;19.70;1.00;;;;;;5033228;28;20045;-27
2022/08/26 08:52:34;;;;;;;16.17;2.33;;;19.70;1.00;;;;;;5035722;28;20049;-27
2022/08/26 08:55:02;;;;;;;12.98;2.15;;;19.70;1.00;;;;;;5035774;28;20553;-27
2022/08/26 08:57:56;;;;;;;9.70;2.00;;;19.90;1.00;;;;;;5036617;28;20053;-27
2022/08/26 09:00:23;;;;;;;12.00;2.80;;;19.70;1.00;;;;;;5033976;28;20041;-28
2022/08/26 09:02:58;;;;;;;11.52;1.98;;;19.80;1.00;;;;;;5044395;28;20376;-27
2022/08/26 09:05:30;;;;;;;8.93;2.40;;;20.00;99.90;;;;;;5044954;28;20045;-27
2022/08/26 09:08:03;;;;;;;10.60;2.25;;;20.00;99.90;;;;;;5037125;28;20083;-27
2022/08/26 09:10:44;;;;;;;9.95;2.20;;;20.10;99.90;;;;;;5036699;28;20048;-27
2022/08/26 09:13:16;;;;;;;12.48;2.67;;;20.30;99.90;;;;;;5035080;28;20037;-26
2022/08/26 09:15:53;;;;;;;10.02;2.40;;;20.30;99.90;;;;;;5036336;28;20128;-28
2022/08/26 09:18:50;;;;;;;13.82;2.60;;;20.10;96.50;;;;;;5034984;28;20454;-27
2022/08/26 09:21:22;;;;;;;12.65;1.90;;;20.30;99.90;;;;;;5036224;28;20049;-27
2022/08/26 09:23:49;;;;;;;13.33;2.20;;;20.30;99.90;;;;;;5035516;28;20053;-27
2022/08/26 09:26:39;;;;;;;14.40;2.22;;;20.70;99.90;;;;;;5034928;28;20285;-28
2022/08/26 09:29:25;;;;;;;10.40;2.55;;;20.70;1.00;;;;;;5034693;28;20377;-27
2022/08/26 09:32:19;;;;;;;13.60;2.28;;;21.00;99.90;;;;;;5035137;28;20049;-28
2022/08/26 09:35:01;;;;;;;9.20;2.13;;;21.00;1.00;;;;;;5033377;28;20140;-28
2022/08/26 09:37:43;;;;;;;10.90;2.53;;;20.70;99.90;;;;;;5034499;28;20080;-27
2022/08/26 09:40:19;;;;;;;14.02;2.17;;;20.50;99.90;;;;;;5032790;28;20050;-27
2022/08/26 09:42:45;;;;;;;8.93;2.33;;;20.50;1.00;;;;;;5048442;28;20049;-27
2022/08/26 09:45:11;;;;;;;11.10;1.88;;;20.50;1.00;;;;;;5033159;28;20045;-27
2022/08/26 09:47:46;;;;;;;11.15;2.10;;;20.50;1.00;;;;;;5033148;28;20041;-27
2022/08/26 09:50:32;;;;;;;9.95;1.90;;;20.50;99.90;;;;;;5036528;28;20487;-27
2022/08/26 09:53:23;;;;;;;8.48;1.38;;;20.60;99.90;;;;;;5035555;28;20080;-27
2022/08/26 09:56:08;;;;;;;9.63;1.77;;;20.50;99.90;;;;;;5034914;28;20045;-27
2022/08/26 09:58:41;;;;;;;16.63;2.03;;;20.60;99.90;;;;;;5033977;28;20045;-27
2022/08/26 10:01:28;;;;;;;9.13;1.90;;;20.30;99.90;;;;;;5034039;28;20171;-27
2022/08/26 10:04:12;;;;;;;13.07;2.58;;;20.30;99.90;;;;;;5035489;28;20994;-27
2022/08/26 10:07:02;;;;;;;11.73;1.90;;;20.20;1.00;;;;;;5035662;28;20377;-27
2022/08/26 10:09:35;;;;;;;11.77;1.70;;;20.30;1.00;;;;;;5034384;28;20045;-27
2022/08/26 10:12:05;;;;;;;;;;;20.40;1.00;;;;;;5018428;28;20107;-27
2022/08/26 10:14:50;;;;;;;13.48;1.58;;;20.40;99.90;;;;;;5032192;28;19921;-27
2022/08/26 10:17:30;;;;;;;12.68;2.80;;;20.40;1.00;;;;;;5034017;28;20053;-27
2022/08/26 10:20:02;;;;;;;17.05;2.58;;;20.30;1.00;;;;;;5033958;28;20107;-27
2022/08/26 10:22:46;;;;;;;7.93;1.88;;;20.20;1.00;;;;;;5034208;28;20538;-27
2022/08/26 10:25:19;;;;;;;16.17;2.33;;;20.20;91.90;;;;;;5034175;28;20053;-27
2022/08/26 10:27:59;;;;;;;11.27;2.03;;;20.20;99.90;;;;;;5034860;28;20053;-27
2022/08/26 10:30:35;;;;;;;9.85;2.50;;;20.20;1.00;;;;;;5034687;28;20049;-26
2022/08/26 10:33:09;;;;;;;12.77;2.45;;;20.10;46.90;;;;;;5047096;28;20049;-28
2022/08/26 10:35:47;;;;;;;11.23;1.50;;;20.00;64.10;;;;;;5033082;28;20688;-27
2022/08/26 10:38:18;;;;;;;12.98;2.40;;;20.20;64.50;;;;;;5035412;28;20049;-27
2022/08/26 10:40:53;;;;;;;13.10;1.85;;;20.20;84.80;;;;;;5035378;28;20053;-27
2022/08/26 10:43:57;;;;;;;11.55;1.60;;;20.30;47.90;;;;;;5034587;28;20053;-27
2022/08/26 10:46:27;;;;;;;9.13;1.45;;;20.30;1.00;;;;;;4975744;28;20563;-27
2022/08/26 10:48:57;;;;;;;10.25;1.60;;;20.20;40.00;;;;;;5009279;28;20057;-27
2022/08/26 10:51:34;;;;;;;11.00;1.80;;;20.30;10.00;;;;;;5020533;28;20131;-27
2022/08/26 10:54:30;;;;;;;12.38;2.17;;;20.30;1.00;;;;;;5032313;28;20110;-28
2022/08/26 10:57:14;;;;;;;10.98;2.38;;;20.20;1.00;;;;;;5035248;28;20373;-27
2022/08/26 10:59:39;;;;;;;8.60;1.50;;;20.20;1.00;;;;;;5033049;28;20550;-27
2022/08/26 11:02:20;;;;;;;12.05;2.00;;;20.30;1.00;;;;;;5034193;28;20057;-27
2022/08/26 11:05:01;;;;;;;6.43;1.50;;;20.20;1.00;;;;;;5034108;28;20506;-27
2022/08/26 11:07:40;;;;;;;7.55;1.30;;;20.30;1.00;;;;;;5033909;28;20514;-27
2022/08/26 11:10:41;;;;;;;10.30;2.55;;;20.40;1.00;;;;;;5032776;28;20049;-27
2022/08/26 11:13:07;;;;;;;7.90;1.60;;;20.50;99.90;;;;;;5017440;28;20062;-27
2022/08/26 11:15:39;;;;;;;9.15;1.95;;;20.60;1.00;;;;;;5034070;28;20128;-27
2022/08/26 11:18:30;;;;;;;8.98;2.25;;;20.70;99.90;;;;;;5032787;28;20076;-27
2022/08/26 11:20:56;;;;;;;8.23;1.80;;;20.90;99.90;;;;;;5032973;28;20046;-27
2022/08/26 11:23:22;;;;;;;7.63;1.77;;;20.80;99.90;;;;;;5033900;28;20107;-27
2022/08/26 11:26:06;;;;;;;10.35;2.13;;;20.80;99.90;;;;;;5033922;28;20053;-27
2022/08/26 11:28:36;;;;;;;9.55;2.15;;;20.80;99.90;;;;;;5033841;28;20484;-27
2022/08/26 11:31:03;;;;;;;8.55;2.30;;;20.70;99.90;;;;;;5030379;28;20045;-27
2022/08/26 11:33:50;;;;;;;2.38;1.35;;;20.50;99.90;;;;;;5032528;28;20495;-27
2022/08/26 11:36:30;;;;;;;8.63;1.83;;;20.30;99.90;;;;;;5034070;28;20158;-27
2022/08/26 11:38:57;;;;;;;6.47;1.75;;;20.00;1.00;;;;;;5029916;28;20073;-27
2022/08/26 11:41:27;;;;;;;8.85;2.30;;;19.90;1.00;;;;;;5033749;28;20049;-26
2022/08/26 11:43:54;;;;;;;9.45;1.95;;;19.90;14.20;;;;;;5032862;28;20046;-27
2022/08/26 11:46:36;;;;;;;6.32;1.73;;;19.90;99.90;;;;;;5033886;28;20124;-27
2022/08/26 11:49:04;;;;;;;5.70;1.65;;;19.90;65.80;;;;;;5033689;28;20060;-27
2022/08/26 11:51:33;;;;;;;8.95;1.63;;;20.10;99.90;;;;;;5033651;28;20060;-27
2022/08/26 11:54:11;;;;;;;10.68;1.98;;;20.30;99.90;;;;;;5029273;28;20038;-27
2022/08/26 11:56:39;;;;;;;6.10;1.52;;;20.40;8.00;;;;;;5037686;28;20472;-28
2022/08/26 11:59:10;;;;;;;7.75;1.90;;;20.70;1.00;;;;;;5041059;28;20048;-27
2022/08/26 12:01:49;;;;;;;5.95;1.85;;;20.80;99.90;;;;;;5040071;28;20136;-26
2022/08/26 12:04:33;;;;;;;8.27;1.90;;;21.10;99.90;;;;;;5035621;28;20099;-26
2022/08/26 12:07:01;;;;;;;9.52;2.47;;;21.20;99.90;;;;;;5038128;28;20041;-26
2022/08/26 12:09:33;;;;;;;10.52;2.20;;;21.60;99.90;;;;;;5036595;28;20053;-26
2022/08/26 12:12:15;;;;;;;10.98;2.20;;;21.50;67.30;;;;;;5034928;28;20038;-27
2022/08/26 12:14:41;;;;;;;13.23;2.22;;;21.30;1.00;;;;;;5036610;28;20049;-27
2022/08/26 12:17:16;;;;;;;9.95;2.10;;;21.40;92.60;;;;;;5038233;28;20045;-27
2022/08/26 12:19:42;;;;;;;10.45;2.50;;;21.30;21.80;;;;;;5037905;28;20053;-27
2022/08/26 12:22:25;;;;;;;11.52;2.40;;;21.20;99.90;;;;;;5037308;28;20042;-26
2022/08/26 12:24:59;;;;;;;11.10;2.33;;;21.30;79.90;;;;;;5036437;28;20064;-26
2022/08/26 12:27:28;;;;;;;15.30;2.50;;;20.90;99.90;;;;;;5037571;28;20147;-26
2022/08/26 12:30:04;;;;;;;10.23;2.00;;;20.60;99.90;;;;;;5037681;28;20476;-26
2022/08/26 12:32:32;;;;;;;10.43;2.45;;;20.30;99.90;;;;;;5036281;28;20045;-26
2022/08/26 12:35:00;;;;;;;7.85;2.13;;;19.90;1.00;;;;;;5037081;28;20143;-27
2022/08/26 12:37:28;;;;;;;10.55;2.58;;;19.80;13.50;;;;;;5036133;28;20049;-26
2022/08/26 12:39:54;;;;;;;9.38;2.17;;;19.60;99.90;;;;;;5036883;28;20041;-26
2022/08/26 12:42:23;;;;;;;11.18;2.78;;;19.50;99.90;;;;;;5035567;28;20045;-26
2022/08/26 12:45:02;;;;;;;13.02;3.10;;;19.60;99.90;;;;;;5034695;28;20047;-27
2022/08/26 12:47:32;;;;;;;9.50;3.00;;;19.50;99.90;;;;;;5016926;28;20050;-26
2022/08/26 12:50:09;;;;;;;11.02;2.50;;;19.50;99.90;;;;;;5024189;28;20049;-26
2022/08/26 12:52:58;;;;;;;10.60;2.58;;;19.70;99.90;;;;;;5036724;28;20509;-27
2022/08/26 12:55:46;;;;;;;7.47;2.25;;;19.70;1.00;;;;;;5036739;28;20049;-27
2022/08/26 12:58:15;;;;;;;10.18;2.45;;;19.60;99.90;;;;;;5036648;28;20049;-27
2022/08/26 13:00:44;;;;;;;10.05;2.22;;;19.50;99.90;;;;;;5035044;28;20037;-28